Time;durP1;ratioP1;P1;durP2;ratioP2;P2;SDS_P1;SDS_P2;PMS_P1;PMS_P2;Temp;Humidity;BMP_temperature;BMP_pressure;BME280_temperature;BME280_humidity;BME280_pressure;Samples;Min_cycle;Max_cycle;Signal;HPM_P1;HPM_P2
2023/03/05 00:05:39;;;;;;;;;;;;;;;;;;;;;
2023/03/05 00:08:26;;;;;;;7.15;1.77;;;6.70;1.00;;;;;;6285087;22;20631;-85
2023/03/05 00:11:11;;;;;;;4.32;1.45;;;6.70;1.00;;;;;;6283164;22;20164;-83
2023/03/05 00:13:42;;;;;;;4.88;1.40;;;6.70;1.00;;;;;;6285595;22;20187;-84
2023/03/05 00:16:13;;;;;;;3.60;1.20;;;6.70;1.00;;;;;;6284649;22;20145;-84
2023/03/05 00:18:40;;;;;;;3.08;1.25;;;6.70;1.00;;;;;;6286076;22;20155;-85
2023/03/05 00:21:23;;;;;;;3.78;2.30;;;6.70;1.00;;;;;;6284969;22;20199;-85
2023/03/05 00:24:04;;;;;;;;;;;;;;;;;;;;;
2023/03/05 00:26:41;;;;;;;4.07;1.02;;;6.70;99.90;;;;;;6284543;22;20199;-85
2023/03/05 00:29:07;;;;;;;5.20;1.10;;;6.70;99.90;;;;;;6258658;22;20145;-85
2023/03/05 00:31:52;;;;;;;3.58;1.00;;;6.60;99.90;;;;;;6285707;22;20204;-85
2023/03/05 00:34:20;;;;;;;1.77;1.10;;;6.60;99.90;;;;;;6286259;22;20133;-85
2023/03/05 00:36:49;;;;;;;1.63;1.30;;;6.60;99.90;;;;;;6288306;22;20227;-85
2023/03/05 00:39:19;;;;;;;8.77;1.70;;;6.50;99.90;;;;;;6287205;22;20671;-85
2023/03/05 00:41:48;;;;;;;4.43;1.70;;;6.50;99.90;;;;;;6259472;22;20247;-85
2023/03/05 00:44:16;;;;;;;5.00;1.00;;;6.50;99.90;;;;;;6257119;22;20163;-85
2023/03/05 00:51:07;;;;;;;;;;;;;;;;;;;;;
2023/03/05 00:53:43;;;;;;;3.95;1.13;;;6.50;99.90;;;;;;6285063;22;20160;-84
2023/03/05 00:56:41;;;;;;;;;;;;;;;;;;;;;
2023/03/05 00:59:07;;;;;;;5.43;1.50;;;6.50;99.90;;;;;;6269277;22;20180;-85
2023/03/05 01:01:44;;;;;;;4.23;1.40;;;6.50;99.90;;;;;;6283378;22;20176;-84
2023/03/05 01:08:00;;;;;;;5.68;1.23;;;6.50;99.90;;;;;;6284955;22;20179;-86
2023/03/05 01:10:46;;;;;;;;;;;;;;;;;;;;;
2023/03/05 01:13:15;;;;;;;7.38;1.88;;;6.50;99.90;;;;;;6284663;22;20664;-85
2023/03/05 01:15:50;;;;;;;;;;;;;;;;;;;;;
2023/03/05 01:18:42;;;;;;;;;;;;;;;;;;;;;
2023/03/05 01:22:02;;;;;;;;;;;;;;;;;;;;;
2023/03/05 01:25:05;;;;;;;3.05;1.30;;;6.50;1.00;;;;;;6269171;22;20179;-85
2023/03/05 01:27:51;;;;;;;4.78;1.70;;;6.50;1.00;;;;;;6254325;22;20183;-82
2023/03/05 01:31:09;;;;;;;;;;;;;;;;;;;;;
2023/03/05 01:34:34;;;;;;;;;;;;;;;;;;;;;
2023/03/05 01:37:29;;;;;;;3.95;1.60;;;6.40;1.00;;;;;;6268172;22;20176;-84
2023/03/05 01:40:28;;;;;;;;;;;;;;;;;;;;;
2023/03/05 01:46:15;;;;;;;6.90;1.98;;;6.30;1.00;;;;;;6269269;22;20183;-85
2023/03/05 01:48:48;;;;;;;8.95;2.03;;;6.30;1.00;;;;;;6283561;22;20219;-86
2023/03/05 01:51:15;;;;;;;5.45;1.95;;;6.20;1.00;;;;;;6284916;22;20249;-86
2023/03/05 01:53:56;;;;;;;;;;;;;;;;;;;;;
2023/03/05 01:56:27;;;;;;;5.97;2.10;;;6.20;1.00;;;;;;6285219;22;20179;-85
2023/03/05 01:58:56;;;;;;;10.77;2.58;;;6.20;1.00;;;;;;6257268;22;20176;-85
2023/03/05 02:01:22;;;;;;;10.23;2.13;;;6.20;1.00;;;;;;6282740;22;20179;-84
2023/03/05 02:03:48;;;;;;;4.40;1.77;;;6.20;1.00;;;;;;6255738;22;20160;-86
2023/03/05 02:06:15;;;;;;;14.00;2.10;;;6.20;8.70;;;;;;6282041;22;20180;-85
2023/03/05 02:08:41;;;;;;;10.50;2.22;;;6.20;10.30;;;;;;6282945;22;20152;-84
2023/03/05 02:11:27;;;;;;;;;;;;;;;;;;;;;
2023/03/05 02:14:26;;;;;;;;;;;;;;;;;;;;;
2023/03/05 02:20:52;;;;;;;6.97;2.70;;;6.20;18.10;;;;;;6265814;22;20181;-85
2023/03/05 02:23:22;;;;;;;8.60;2.05;;;6.20;17.30;;;;;;6282795;22;20540;-85
2023/03/05 02:25:47;;;;;;;8.88;2.22;;;6.20;9.10;;;;;;6283633;22;20152;-85
2023/03/05 02:28:53;;;;;;;10.33;2.00;;;6.20;11.20;;;;;;6254095;22;20244;-84
2023/03/05 02:41:03;;;;;;;;;;;;;;;;;;;;;
2023/03/05 02:44:30;;;;;;;16.70;2.50;;;6.30;72.30;;;;;;6293693;22;20152;-86
2023/03/05 02:51:02;;;;;;;7.32;2.08;;;6.20;99.90;;;;;;6227382;22;20719;-86
2023/03/05 02:53:47;;;;;;;;;;;;;;;;;;;;;
2023/03/05 02:56:37;;;;;;;4.85;1.95;;;6.20;99.90;;;;;;6287777;22;20167;-86
2023/03/05 02:59:35;;;;;;;;;;;;;;;;;;;;;
2023/03/05 03:02:10;;;;;;;5.80;1.95;;;6.20;99.90;;;;;;6286659;22;20188;-85
2023/03/05 03:08:02;;;;;;;6.93;1.90;;;6.20;99.90;;;;;;6263807;22;20774;-86
2023/03/05 03:11:01;;;;;;;;;;;;;;;;;;;;;
2023/03/05 03:13:49;;;;;;;8.02;2.13;;;6.20;99.90;;;;;;6271831;22;20422;-85
2023/03/05 03:20:15;;;;;;;8.07;2.30;;;6.20;99.90;;;;;;6268382;22;20176;-86
2023/03/05 03:22:43;;;;;;;9.82;3.78;;;6.10;99.90;;;;;;6283171;22;20194;-86
2023/03/05 03:25:36;;;;;;;;;;;;;;;;;;;;;
2023/03/05 03:37:52;;;;;;;4.75;1.70;;;6.10;99.90;;;;;;6267001;22;20227;-85
2023/03/05 03:40:18;;;;;;;6.47;2.78;;;6.10;99.90;;;;;;6283815;22;20496;-85
2023/03/05 03:42:52;;;;;;;8.07;2.13;;;6.10;99.90;;;;;;6282631;22;20152;-85
2023/03/05 03:45:21;;;;;;;7.28;1.77;;;6.00;99.90;;;;;;6284036;22;20144;-84
2023/03/05 03:47:59;;;;;;;13.00;2.83;;;6.00;99.90;;;;;;6282990;22;20176;-83
2023/03/05 03:53:21;;;;;;;8.57;2.35;;;6.00;99.90;;;;;;6283766;22;20515;-86
2023/03/05 04:09:53;;;;;;;;;;;;;;;;;;;;;
2023/03/05 04:12:45;;;;;;;8.50;2.65;;;5.80;1.00;;;;;;6287332;22;20168;-84
2023/03/05 04:16:18;;;;;;;;;;;;;;;;;;;;;
2023/03/05 04:32:39;;;;;;;7.53;3.60;;;5.80;1.00;;;;;;6260518;22;20636;-85
2023/03/05 04:35:14;;;;;;;;;;;;;;;;;;;;;
2023/03/05 04:42:14;;;;;;;;;;;;;;;;;;;;;
2023/03/05 04:48:05;;;;;;;;;;;;;;;;;;;;;
2023/03/05 05:00:40;;;;;;;;;;;;;;;;;;;;;
2023/03/05 05:11:50;;;;;;;7.25;3.30;;;5.80;99.90;;;;;;6266949;22;20167;-85
2023/03/05 05:14:37;;;;;;;;;;;;;;;;;;;;;
2023/03/05 05:17:05;;;;;;;5.43;2.88;;;5.70;99.90;;;;;;6281357;22;20152;-84
2023/03/05 05:19:34;;;;;;;6.57;3.50;;;5.70;99.90;;;;;;6280683;22;20153;-84
2023/03/05 05:22:00;;;;;;;17.20;3.58;;;5.60;99.90;;;;;;6282114;22;20153;-84
2023/03/05 05:28:19;;;;;;;8.93;2.72;;;5.60;1.00;;;;;;6264915;22;20582;-84
2023/03/05 05:33:59;;;;;;;9.43;2.03;;;5.60;1.00;;;;;;6267523;22;20148;-84
2023/03/05 05:36:40;;;;;;;;;;;;;;;;;;;;;
2023/03/05 05:55:35;;;;;;;4.18;1.95;;;5.50;1.00;;;;;;6259223;22;20528;-84
2023/03/05 05:58:13;;;;;;;8.48;2.25;;;5.50;1.00;;;;;;6253770;22;20214;-84
2023/03/05 06:01:20;;;;;;;8.75;2.05;;;5.40;1.00;;;;;;6254670;22;20173;-85
2023/03/05 06:04:44;;;;;;;5.70;2.40;;;5.40;1.00;;;;;;6282996;22;20152;-85
2023/03/05 06:07:49;;;;;;;;;;;;;;;;;;;;;
2023/03/05 06:13:52;;;;;;;;;;;;;;;;;;;;;
2023/03/05 06:17:14;;;;;;;;;;;;;;;;;;;;;
2023/03/05 06:20:27;;;;;;;;;;;;;;;;;;;;;
2023/03/05 06:33:41;;;;;;;12.25;4.07;;;5.40;99.90;;;;;;6256840;22;20164;-85
2023/03/05 06:40:01;;;;;;;;;;;;;;;;;;;;;
2023/03/05 06:51:51;;;;;;;8.32;3.55;;;5.60;99.90;;;;;;6266859;22;20152;-85
2023/03/05 06:55:13;;;;;;;;;;;;;;;;;;;;;
2023/03/05 06:58:18;;;;;;;6.43;2.78;;;5.60;99.90;;;;;;6269475;22;20183;-85
2023/03/05 07:01:26;;;;;;;13.25;3.55;;;5.70;99.90;;;;;;6253335;22;20176;-82
2023/03/05 07:04:28;;;;;;;;;;;;;;;;;;;;;
2023/03/05 07:07:01;;;;;;;;;;;;;;;;;;;;;
2023/03/05 07:09:44;;;;;;;;;;;;;;;;;;;;;
2023/03/05 07:12:32;;;;;;;;;;;;;;;;;;;;;
2023/03/05 07:16:07;;;;;;;7.22;3.53;;;6.10;99.90;;;;;;6281197;22;20174;-81
2023/03/05 07:18:47;;;;;;;8.75;3.60;;;6.20;99.90;;;;;;6268311;22;20235;-81
2023/03/05 07:21:27;;;;;;;14.05;4.60;;;6.20;99.90;;;;;;6282605;22;20172;-81
2023/03/05 07:23:54;;;;;;;9.98;4.03;;;6.30;99.90;;;;;;6281510;22;20165;-82
2023/03/05 07:26:20;;;;;;;7.10;4.47;;;6.30;99.90;;;;;;6281551;22;20620;-81
2023/03/05 07:28:48;;;;;;;9.80;3.90;;;6.30;99.90;;;;;;6281961;22;20145;-81
2023/03/05 07:31:18;;;;;;;7.28;4.45;;;6.40;99.90;;;;;;6280643;22;20194;-81
2023/03/05 07:33:44;;;;;;;9.88;4.68;;;6.40;99.90;;;;;;6282712;22;20171;-82
2023/03/05 07:36:15;;;;;;;7.47;4.80;;;6.40;99.90;;;;;;6281931;22;20250;-81
2023/03/05 07:39:11;;;;;;;14.32;5.10;;;6.40;99.90;;;;;;6282613;22;20185;-82
2023/03/05 07:48:38;;;;;;;11.02;4.82;;;6.70;18.40;;;;;;6261776;22;20232;-81
2023/03/05 07:58:39;;;;;;;;;;;;;;;;;;;;;
2023/03/05 08:12:24;;;;;;;;;;;;;;;;;;;;;
2023/03/05 08:18:38;;;;;;;9.50;5.15;;;8.60;1.00;;;;;;6187275;23;20401;-83
2023/03/05 08:21:52;;;;;;;10.40;5.80;;;8.80;1.00;;;;;;6279994;22;20180;-82
2023/03/05 08:28:01;;;;;;;;;;;;;;;;;;;;;
2023/03/05 08:31:05;;;;;;;;;;;;;;;;;;;;;
2023/03/05 08:34:08;;;;;;;;;;;;;;;;;;;;;
2023/03/05 08:43:54;;;;;;;;;;;;;;;;;;;;;
2023/03/05 08:46:25;;;;;;;9.80;5.40;;;8.90;1.00;;;;;;6274170;22;20415;-82
2023/03/05 08:48:53;;;;;;;15.67;6.70;;;8.80;1.00;;;;;;6254615;22;20441;-83
2023/03/05 08:51:26;;;;;;;8.73;5.00;;;8.80;1.00;;;;;;6278399;22;20395;-83
2023/03/05 08:54:12;;;;;;;14.32;6.70;;;8.70;1.00;;;;;;6281149;22;20154;-83
2023/03/05 09:00:16;;;;;;;18.55;8.50;;;8.50;1.00;;;;;;6231915;22;20673;-83
2023/03/05 09:02:44;;;;;;;17.83;8.07;;;8.40;1.00;;;;;;6183788;22;20161;-83
2023/03/05 09:05:15;;;;;;;18.77;9.07;;;8.40;1.00;;;;;;6280815;22;20173;-83
2023/03/05 09:07:40;;;;;;;13.52;8.38;;;8.40;1.00;;;;;;6253049;22;20619;-83
2023/03/05 09:10:17;;;;;;;17.20;8.40;;;8.30;1.00;;;;;;6280329;22;20194;-83
2023/03/05 09:13:35;;;;;;;;;;;;;;;;;;;;;
2023/03/05 09:17:09;;;;;;;;;;;;;;;;;;;;;
2023/03/05 09:26:19;;;;;;;;;;;;;;;;;;;;;
2023/03/05 09:31:52;;;;;;;;;;;;;;;;;;;;;
2023/03/05 09:41:12;;;;;;;;;;;;;;;;;;;;;
2023/03/05 09:44:10;;;;;;;8.75;5.78;;;7.80;99.90;;;;;;6280683;22;20171;-82
2023/03/05 09:47:06;;;;;;;7.40;6.10;;;7.70;99.60;;;;;;6206719;22;20204;-83
2023/03/05 09:50:08;;;;;;;9.15;6.55;;;7.60;96.60;;;;;;6254111;22;20198;-82
2023/03/05 09:52:47;;;;;;;10.80;7.50;;;7.50;99.90;;;;;;6281227;22;20133;-82
2023/03/05 09:55:40;;;;;;;11.15;8.07;;;7.40;99.90;;;;;;6280593;22;20170;-82
2023/03/05 09:58:42;;;;;;;;;;;;;;;;;;;;;
2023/03/05 10:01:50;;;;;;;;;;;;;;;;;;;;;
2023/03/05 10:07:42;;;;;;;11.25;8.55;;;7.80;99.90;;;;;;6255001;22;20183;-83
2023/03/05 10:10:33;;;;;;;15.27;9.73;;;7.70;99.90;;;;;;6276173;22;20178;-84
2023/03/05 10:13:39;;;;;;;18.45;10.35;;;7.60;99.90;;;;;;6250979;22;20140;-83
2023/03/05 10:16:36;;;;;;;;;;;;;;;;;;;;;
2023/03/05 10:19:32;;;;;;;;;;;;;;;;;;;;;
2023/03/05 10:23:05;;;;;;;15.13;10.25;;;7.40;99.90;;;;;;6277428;22;20168;-83
2023/03/05 10:26:21;;;;;;;15.55;9.82;;;7.60;99.90;;;;;;6269028;22;20720;-85
2023/03/05 10:33:01;;;;;;;12.30;10.02;;;7.80;99.90;;;;;;6119267;23;20508;-81
2023/03/05 10:36:15;;;;;;;14.50;9.15;;;8.00;99.90;;;;;;6269732;22;20156;-83
2023/03/05 10:38:53;;;;;;;14.40;9.95;;;8.20;63.10;;;;;;6249065;22;20176;-83
2023/03/05 10:42:04;;;;;;;;;;;;;;;;;;;;;
2023/03/05 10:44:39;;;;;;;11.65;9.95;;;8.00;1.00;;;;;;6277895;22;20212;-81
2023/03/05 10:47:27;;;;;;;14.60;8.88;;;8.20;1.00;;;;;;6274286;22;20175;-81
2023/03/05 10:49:55;;;;;;;14.82;10.50;;;8.20;1.00;;;;;;6249638;22;20636;-82
2023/03/05 10:52:33;;;;;;;16.42;11.23;;;8.30;1.00;;;;;;6277661;22;20152;-82
2023/03/05 10:54:59;;;;;;;14.23;10.73;;;8.60;1.00;;;;;;6252651;22;20607;-82
2023/03/05 10:57:29;;;;;;;15.63;9.50;;;9.10;1.00;;;;;;6278235;22;20386;-81
2023/03/05 11:00:10;;;;;;;14.00;10.70;;;9.60;1.00;;;;;;6251403;22;20180;-82
2023/03/05 11:02:54;;;;;;;13.97;10.90;;;9.80;1.00;;;;;;6278794;22;20409;-82
2023/03/05 11:05:41;;;;;;;12.17;9.30;;;9.90;1.00;;;;;;6280338;22;20377;-82
2023/03/05 11:08:32;;;;;;;16.33;11.73;;;9.80;99.90;;;;;;6281082;22;20445;-83
2023/03/05 11:11:12;;;;;;;16.97;9.90;;;9.60;99.90;;;;;;6283910;22;20403;-82
2023/03/05 11:13:51;;;;;;;12.20;10.33;;;9.30;99.90;;;;;;6278402;22;20351;-82
2023/03/05 11:16:44;;;;;;;17.57;10.70;;;9.10;99.90;;;;;;6242734;22;20375;-81
2023/03/05 11:19:28;;;;;;;16.27;11.00;;;9.00;1.00;;;;;;6280816;22;20674;-81
2023/03/05 11:22:13;;;;;;;14.30;10.20;;;8.80;1.00;;;;;;6284268;22;20374;-81
2023/03/05 11:24:40;;;;;;;15.23;10.90;;;8.70;1.00;;;;;;6279471;22;20419;-83
2023/03/05 11:27:32;;;;;;;16.30;10.80;;;8.60;1.00;;;;;;6275060;22;20958;-82
2023/03/05 11:29:58;;;;;;;18.75;10.98;;;8.50;1.00;;;;;;6273904;22;20172;-82
2023/03/05 11:32:26;;;;;;;12.43;10.65;;;8.40;1.00;;;;;;6275819;22;20152;-84
2023/03/05 11:34:55;;;;;;;11.97;9.27;;;8.20;1.00;;;;;;6247896;22;20167;-84
2023/03/05 11:37:30;;;;;;;15.75;11.48;;;8.10;1.00;;;;;;6249270;22;20403;-82
2023/03/05 11:40:19;;;;;;;12.77;9.48;;;8.00;1.00;;;;;;6260985;22;20183;-83
2023/03/05 11:42:54;;;;;;;15.17;10.83;;;8.10;1.00;;;;;;6288200;22;20147;-81
2023/03/05 11:45:21;;;;;;;19.05;10.57;;;8.30;1.00;;;;;;6262749;22;20375;-82
2023/03/05 11:47:52;;;;;;;14.80;10.57;;;8.50;1.00;;;;;;6289190;22;20184;-81
2023/03/05 11:50:22;;;;;;;13.35;10.50;;;8.70;1.00;;;;;;6278016;22;20406;-83
2023/03/05 11:52:49;;;;;;;14.17;9.83;;;8.90;1.00;;;;;;6249388;22;20141;-83
2023/03/05 11:55:19;;;;;;;14.80;9.33;;;9.10;1.00;;;;;;6278793;22;20416;-82
2023/03/05 11:57:56;;;;;;;11.80;8.33;;;9.10;1.00;;;;;;6275752;22;20371;-81
2023/03/05 12:00:28;;;;;;;10.70;8.40;;;9.00;1.00;;;;;;6274570;22;21190;-81
2023/03/05 12:02:57;;;;;;;11.35;7.88;;;8.80;1.00;;;;;;6277179;22;20366;-81
2023/03/05 12:05:23;;;;;;;10.02;8.13;;;8.50;1.00;;;;;;6275207;22;20171;-80
2023/03/05 12:07:54;;;;;;;16.80;8.48;;;8.30;1.00;;;;;;6277041;22;20471;-80
2023/03/05 12:10:23;;;;;;;8.80;7.30;;;8.10;1.00;;;;;;6248945;22;20168;-82
2023/03/05 12:13:11;;;;;;;8.93;7.15;;;8.10;1.00;;;;;;6272243;22;20148;-82
2023/03/05 12:15:55;;;;;;;10.10;7.93;;;8.20;1.00;;;;;;6278000;22;20171;-81
2023/03/05 12:18:27;;;;;;;8.32;6.28;;;8.30;1.00;;;;;;6273970;22;20151;-82
2023/03/05 12:21:00;;;;;;;9.13;5.40;;;8.30;1.00;;;;;;6276885;22;20194;-80
2023/03/05 12:23:26;;;;;;;9.20;5.93;;;8.30;1.00;;;;;;6278149;22;20143;-81
2023/03/05 12:25:59;;;;;;;7.95;5.50;;;8.10;1.00;;;;;;6277168;22;20152;-79
2023/03/05 12:28:31;;;;;;;6.35;5.70;;;8.00;1.00;;;;;;6275001;22;20164;-81
2023/03/05 12:31:02;;;;;;;7.20;5.57;;;8.00;1.00;;;;;;6275139;22;20168;-81
2023/03/05 12:33:35;;;;;;;7.75;5.68;;;8.00;1.00;;;;;;6248976;22;20171;-80
2023/03/05 12:36:19;;;;;;;9.73;6.45;;;8.10;1.00;;;;;;6248472;22;20248;-82
2023/03/05 12:38:55;;;;;;;7.38;6.18;;;8.10;1.00;;;;;;6275840;22;20168;-82
2023/03/05 12:41:24;;;;;;;8.10;6.40;;;8.20;1.00;;;;;;6275482;22;20168;-81
2023/03/05 12:44:04;;;;;;;7.22;5.57;;;8.10;1.00;;;;;;6275136;22;20148;-81
2023/03/05 12:46:44;;;;;;;7.97;5.88;;;8.10;1.00;;;;;;6273495;22;20176;-80
2023/03/05 12:49:19;;;;;;;5.50;4.95;;;8.20;1.00;;;;;;6249718;22;20171;-81
2023/03/05 12:51:47;;;;;;;6.60;4.93;;;8.30;1.00;;;;;;6274538;22;20217;-80
2023/03/05 12:54:21;;;;;;;6.57;4.27;;;8.50;1.00;;;;;;6248792;22;20152;-81
2023/03/05 12:56:46;;;;;;;5.20;4.60;;;8.50;1.00;;;;;;6249695;22;20378;-81
2023/03/05 12:59:14;;;;;;;7.80;5.53;;;8.60;1.00;;;;;;6249583;22;20440;-80
2023/03/05 13:01:43;;;;;;;5.53;4.22;;;8.70;1.00;;;;;;6274203;22;20615;-80
2023/03/05 13:04:18;;;;;;;5.80;4.20;;;8.80;1.00;;;;;;6249103;22;20156;-79
2023/03/05 13:06:44;;;;;;;5.00;4.20;;;8.90;1.00;;;;;;6275120;22;20448;-79
2023/03/05 13:09:23;;;;;;;8.10;5.57;;;8.90;1.00;;;;;;6276066;22;20411;-79
2023/03/05 13:11:51;;;;;;;7.50;6.23;;;9.00;1.00;;;;;;6248756;22;20375;-82
2023/03/05 13:14:38;;;;;;;13.77;9.90;;;9.20;99.90;;;;;;6276416;22;20378;-80
2023/03/05 13:17:31;;;;;;;10.57;6.70;;;9.30;99.90;;;;;;6246344;22;20379;-80
2023/03/05 13:19:58;;;;;;;11.63;9.83;;;9.40;99.90;;;;;;6272634;22;20527;-80
2023/03/05 13:22:23;;;;;;;6.17;4.60;;;9.40;99.90;;;;;;6273793;22;20371;-81
2023/03/05 13:25:13;;;;;;;11.57;4.90;;;9.40;99.90;;;;;;6275603;22;20379;-79
2023/03/05 13:27:38;;;;;;;7.60;5.50;;;9.40;99.90;;;;;;6249020;22;20183;-81
2023/03/05 13:30:05;;;;;;;7.80;7.00;;;9.30;99.90;;;;;;6276850;22;20874;-80
2023/03/05 13:32:32;;;;;;;8.90;5.53;;;9.20;99.90;;;;;;6276734;22;20153;-80
2023/03/05 13:34:59;;;;;;;8.37;6.93;;;9.10;99.90;;;;;;6276235;22;20410;-80
2023/03/05 13:37:36;;;;;;;7.90;7.10;;;9.10;99.90;;;;;;6275513;22;20413;-81
2023/03/05 13:40:20;;;;;;;12.27;9.53;;;9.10;99.90;;;;;;6274352;22;20403;-81
2023/03/05 13:42:45;;;;;;;11.80;8.60;;;9.10;99.90;;;;;;6224351;22;20379;-82
2023/03/05 13:45:26;;;;;;;9.73;8.00;;;9.20;99.90;;;;;;6275833;22;20265;-82
2023/03/05 13:47:58;;;;;;;9.10;7.50;;;9.20;99.90;;;;;;6249189;22;20176;-80
2023/03/05 13:50:27;;;;;;;7.53;6.67;;;9.30;99.90;;;;;;6273817;22;20395;-81
2023/03/05 13:52:55;;;;;;;9.67;6.60;;;9.50;99.90;;;;;;6274312;22;20379;-81
2023/03/05 13:55:20;;;;;;;9.30;8.40;;;9.60;99.90;;;;;;6247658;22;20386;-80
2023/03/05 13:57:49;;;;;;;10.60;7.50;;;9.60;99.90;;;;;;6274650;22;20409;-78
2023/03/05 14:00:35;;;;;;;13.00;11.10;;;9.50;99.90;;;;;;6273931;22;20172;-81
2023/03/05 14:03:23;;;;;;;20.70;11.43;;;9.40;99.90;;;;;;6275151;22;20359;-80
2023/03/05 14:05:50;;;;;;;11.23;8.13;;;9.20;99.90;;;;;;6274857;22;20394;-80
2023/03/05 14:08:40;;;;;;;;;;;;;;;;;;;;;
2023/03/05 14:11:14;;;;;;;10.45;8.77;;;9.00;99.90;;;;;;6274407;22;20259;-81
2023/03/05 14:13:40;;;;;;;10.80;9.45;;;8.80;99.90;;;;;;6275602;22;20219;-81
2023/03/05 14:16:22;;;;;;;13.40;10.00;;;8.70;99.90;;;;;;6272488;22;20154;-80
2023/03/05 14:18:59;;;;;;;10.25;9.15;;;8.60;99.90;;;;;;6276181;22;20137;-80
2023/03/05 14:21:40;;;;;;;14.82;10.95;;;8.50;99.90;;;;;;6274991;22;20515;-81
2023/03/05 14:24:12;;;;;;;12.27;9.85;;;8.40;99.90;;;;;;6275383;22;20193;-81
2023/03/05 14:26:47;;;;;;;13.30;9.90;;;8.40;99.90;;;;;;6246931;22;20173;-80
2023/03/05 14:29:16;;;;;;;11.85;9.15;;;8.40;99.90;;;;;;6275955;22;20168;-81
2023/03/05 14:31:55;;;;;;;15.27;11.27;;;8.40;99.90;;;;;;6277541;22;20194;-79
2023/03/05 14:34:28;;;;;;;13.18;11.00;;;8.40;99.90;;;;;;6287527;22;20471;-80
2023/03/05 14:36:57;;;;;;;17.92;14.60;;;8.40;99.90;;;;;;6259914;22;20487;-79
2023/03/05 14:39:30;;;;;;;17.23;14.90;;;8.40;99.90;;;;;;6288598;22;20133;-82
2023/03/05 14:42:34;;;;;;;18.38;12.63;;;8.40;99.90;;;;;;6289085;22;20149;-80
2023/03/05 14:45:10;;;;;;;16.83;13.85;;;8.50;99.90;;;;;;6259476;22;20152;-79
2023/03/05 14:47:36;;;;;;;12.55;11.00;;;8.50;99.90;;;;;;6288126;22;20168;-82
2023/03/05 14:50:01;;;;;;;14.10;10.23;;;8.50;99.90;;;;;;6253535;22;20693;-81
2023/03/05 14:52:27;;;;;;;11.53;9.50;;;8.50;99.90;;;;;;6279067;22;20655;-81
2023/03/05 14:54:53;;;;;;;11.63;9.23;;;8.50;99.90;;;;;;6280365;22;20160;-82
2023/03/05 14:57:22;;;;;;;12.45;9.90;;;8.50;99.90;;;;;;6284066;22;20149;-82
2023/03/05 14:59:48;;;;;;;14.45;10.95;;;8.50;99.90;;;;;;6283326;22;20172;-81
2023/03/05 15:02:19;;;;;;;17.53;14.50;;;8.50;99.90;;;;;;6278155;22;20177;-81
2023/03/05 15:04:45;;;;;;;15.77;14.02;;;8.50;99.90;;;;;;6276814;22;20144;-82
2023/03/05 15:07:20;;;;;;;19.75;17.70;;;8.50;99.90;;;;;;6275347;22;20214;-82
2023/03/05 15:09:45;;;;;;;14.48;11.35;;;8.40;99.90;;;;;;6248738;22;20176;-82
2023/03/05 15:12:13;;;;;;;17.67;15.83;;;8.40;99.90;;;;;;6250473;22;20195;-81
2023/03/05 15:14:40;;;;;;;12.07;10.43;;;8.40;99.90;;;;;;6277050;22;20152;-80
2023/03/05 15:17:12;;;;;;;15.70;10.75;;;8.40;99.90;;;;;;6275729;22;20227;-81
2023/03/05 15:19:38;;;;;;;14.43;12.93;;;8.30;99.90;;;;;;6251366;22;20820;-80
2023/03/05 15:22:03;;;;;;;17.93;13.97;;;8.20;1.00;;;;;;6278035;22;20161;-82
2023/03/05 15:24:29;;;;;;;15.90;12.23;;;8.20;1.00;;;;;;6254270;22;20160;-82
2023/03/05 15:26:54;;;;;;;15.17;11.30;;;8.10;1.00;;;;;;6278802;22;20179;-81
2023/03/05 15:29:20;;;;;;;13.17;9.53;;;8.10;1.00;;;;;;6281586;22;20280;-80
2023/03/05 15:31:45;;;;;;;11.57;10.40;;;8.10;1.00;;;;;;6286055;22;20217;-81
2023/03/05 15:34:11;;;;;;;15.63;13.03;;;8.00;1.00;;;;;;6258847;22;20513;-81
2023/03/05 15:36:39;;;;;;;14.80;12.23;;;8.00;1.00;;;;;;6282394;22;20206;-81
2023/03/05 15:39:06;;;;;;;18.80;16.80;;;8.00;1.00;;;;;;6254380;22;20183;-80
2023/03/05 15:41:32;;;;;;;11.27;9.30;;;8.00;1.00;;;;;;6253830;22;20198;-82
2023/03/05 15:43:57;;;;;;;12.60;9.80;;;7.90;1.00;;;;;;6283057;22;20197;-81
2023/03/05 15:46:23;;;;;;;11.80;8.60;;;7.90;1.00;;;;;;6257027;22;20184;-82
2023/03/05 15:48:49;;;;;;;12.43;9.43;;;7.80;1.00;;;;;;6286118;22;20155;-82
2023/03/05 15:51:16;;;;;;;11.67;9.87;;;7.80;1.00;;;;;;6282223;22;20179;-82
2023/03/05 15:53:41;;;;;;;12.02;10.73;;;7.80;1.00;;;;;;6254185;22;20164;-82
2023/03/05 15:56:12;;;;;;;14.43;10.87;;;7.70;1.00;;;;;;6282281;22;20326;-83
2023/03/05 15:58:38;;;;;;;9.82;7.97;;;7.70;1.00;;;;;;6283518;22;20144;-81
2023/03/05 16:01:04;;;;;;;13.63;7.90;;;7.70;1.00;;;;;;6285631;22;20511;-83
2023/03/05 16:03:29;;;;;;;20.03;17.80;;;7.70;1.00;;;;;;6260974;22;20409;-83
2023/03/05 16:05:55;;;;;;;12.53;8.57;;;7.60;1.00;;;;;;6287066;22;20148;-82
2023/03/05 16:08:20;;;;;;;9.23;8.00;;;7.60;1.00;;;;;;6289148;22;20554;-81
2023/03/05 16:10:49;;;;;;;10.80;9.70;;;7.50;1.00;;;;;;6287873;22;20165;-81
2023/03/05 16:13:16;;;;;;;12.35;10.35;;;7.50;1.00;;;;;;6256635;22;20179;-83
2023/03/05 16:15:42;;;;;;;10.43;7.32;;;7.40;1.00;;;;;;6279303;22;20201;-82
2023/03/05 16:18:12;;;;;;;10.13;7.28;;;7.40;1.00;;;;;;6278950;22;20156;-82
2023/03/05 16:20:38;;;;;;;9.73;6.57;;;7.30;1.00;;;;;;6278810;22;20207;-83
2023/03/05 16:23:04;;;;;;;7.73;7.00;;;7.30;1.00;;;;;;6278322;22;20592;-83
2023/03/05 16:25:29;;;;;;;12.27;10.75;;;7.20;1.00;;;;;;6278796;22;20203;-83
2023/03/05 16:27:55;;;;;;;19.33;16.20;;;7.10;1.00;;;;;;6278235;22;20172;-83
2023/03/05 16:30:21;;;;;;;16.97;15.23;;;7.10;1.00;;;;;;6249494;22;20411;-83
2023/03/05 16:32:47;;;;;;;29.33;20.73;;;7.10;1.00;;;;;;6278593;22;20184;-84
2023/03/05 16:35:12;;;;;;;7.93;7.07;;;7.00;1.00;;;;;;6277271;22;20148;-83
2023/03/05 16:37:39;;;;;;;12.63;8.90;;;7.00;1.00;;;;;;6278246;22;20200;-84
2023/03/05 16:40:05;;;;;;;11.13;8.25;;;7.00;1.00;;;;;;6275396;22;20168;-84
2023/03/05 16:42:31;;;;;;;10.32;9.32;;;6.90;1.00;;;;;;6277415;22;20166;-83
2023/03/05 16:44:57;;;;;;;6.47;5.77;;;6.90;15.40;;;;;;6276863;22;20600;-82
2023/03/05 16:47:23;;;;;;;11.02;7.07;;;6.90;12.50;;;;;;6249741;22;20176;-83
2023/03/05 16:49:49;;;;;;;8.20;6.43;;;6.80;21.20;;;;;;6249586;22;20281;-84
2023/03/05 16:52:14;;;;;;;7.63;6.00;;;6.80;16.70;;;;;;6252071;22;20167;-84
2023/03/05 16:54:40;;;;;;;7.10;6.40;;;6.80;32.30;;;;;;6278554;22;20155;-83
2023/03/05 16:57:09;;;;;;;7.73;5.57;;;6.80;37.00;;;;;;6278879;22;20654;-83
2023/03/05 16:59:36;;;;;;;8.05;5.30;;;6.70;60.50;;;;;;6276916;22;20153;-84
2023/03/05 17:02:02;;;;;;;5.70;4.03;;;6.70;96.70;;;;;;6250882;22;20168;-84
2023/03/05 17:04:28;;;;;;;7.63;5.28;;;6.70;99.90;;;;;;6249491;22;20630;-82
2023/03/05 17:06:54;;;;;;;6.57;5.75;;;6.70;99.90;;;;;;6277517;22;20179;-82
2023/03/05 17:09:22;;;;;;;8.93;6.43;;;6.70;99.90;;;;;;6277582;22;20152;-81
2023/03/05 17:11:49;;;;;;;11.77;6.30;;;6.70;99.90;;;;;;6250609;22;20607;-83
2023/03/05 17:14:15;;;;;;;6.47;4.68;;;6.70;99.90;;;;;;6276174;22;20156;-82
2023/03/05 17:16:40;;;;;;;5.80;3.97;;;6.60;99.90;;;;;;6275560;22;20167;-83
2023/03/05 17:19:06;;;;;;;7.83;6.57;;;6.60;99.90;;;;;;6275505;22;20163;-81
2023/03/05 17:21:31;;;;;;;5.90;5.30;;;6.60;99.90;;;;;;6277309;22;20627;-82
2023/03/05 17:23:57;;;;;;;8.10;5.17;;;6.60;99.90;;;;;;6277175;22;20186;-83
2023/03/05 17:26:22;;;;;;;6.10;4.40;;;6.50;99.90;;;;;;6277744;22;20278;-84
2023/03/05 17:28:48;;;;;;;12.10;7.67;;;6.50;1.00;;;;;;6277563;22;20151;-83
2023/03/05 17:31:14;;;;;;;6.43;5.70;;;6.50;1.00;;;;;;6276452;22;20176;-81
2023/03/05 17:33:40;;;;;;;5.73;5.07;;;6.50;1.00;;;;;;6277793;22;20144;-82
2023/03/05 17:36:12;;;;;;;6.03;5.20;;;6.40;1.00;;;;;;6249516;22;20225;-82
2023/03/05 17:38:38;;;;;;;5.82;5.22;;;6.40;14.00;;;;;;6277192;22;20171;-81
2023/03/05 17:41:04;;;;;;;6.83;5.70;;;6.40;40.50;;;;;;6277368;22;20168;-81
2023/03/05 17:43:29;;;;;;;6.33;5.70;;;6.40;38.40;;;;;;6277486;22;20236;-83
2023/03/05 17:45:58;;;;;;;8.40;6.50;;;6.40;98.90;;;;;;6275781;22;20148;-84
2023/03/05 17:48:24;;;;;;;5.90;5.30;;;6.40;99.90;;;;;;6277084;22;20231;-83
2023/03/05 17:50:50;;;;;;;8.43;5.70;;;6.40;99.90;;;;;;6276580;22;20231;-84
2023/03/05 17:53:15;;;;;;;7.80;5.30;;;6.40;99.90;;;;;;6277481;22;20148;-84
2023/03/05 17:55:42;;;;;;;5.75;5.15;;;6.30;99.90;;;;;;6276838;22;20191;-83
2023/03/05 17:58:08;;;;;;;8.57;5.30;;;6.40;99.90;;;;;;6278092;22;20160;-82
2023/03/05 18:00:35;;;;;;;6.83;5.70;;;6.30;99.90;;;;;;6277003;22;20631;-83
2023/03/05 18:03:00;;;;;;;6.32;4.97;;;6.30;99.90;;;;;;6249171;22;20157;-83
2023/03/05 18:05:27;;;;;;;5.97;4.80;;;6.30;99.90;;;;;;6276187;22;20163;-84
2023/03/05 18:07:54;;;;;;;6.35;4.45;;;6.30;99.90;;;;;;6278859;22;20422;-82
2023/03/05 18:10:22;;;;;;;7.88;5.00;;;6.30;99.90;;;;;;6282349;22;20168;-81
2023/03/05 18:12:48;;;;;;;9.18;5.28;;;6.30;99.90;;;;;;6283419;22;20156;-83
2023/03/05 18:15:15;;;;;;;5.57;4.60;;;6.20;99.90;;;;;;6282063;22;20222;-82
2023/03/05 18:17:41;;;;;;;7.32;5.15;;;6.10;1.00;;;;;;6253333;22;20164;-82
2023/03/05 18:20:09;;;;;;;7.40;5.60;;;6.10;1.00;;;;;;6253992;22;20215;-83
2023/03/05 18:22:34;;;;;;;8.75;5.20;;;6.10;1.00;;;;;;6251028;22;20585;-81
2023/03/05 18:25:00;;;;;;;5.57;4.80;;;6.10;1.00;;;;;;6283370;22;20152;-81
2023/03/05 18:27:26;;;;;;;8.27;6.30;;;6.00;31.40;;;;;;6268338;22;20180;-83
2023/03/05 18:29:53;;;;;;;7.67;5.90;;;6.00;99.90;;;;;;6266541;22;20411;-82
2023/03/05 18:32:23;;;;;;;13.32;4.95;;;5.90;99.90;;;;;;6283881;22;20516;-81